Time;durP1;ratioP1;P1;durP2;ratioP2;P2;SDS_P1;SDS_P2;PMS_P1;PMS_P2;Temp;Humidity;BMP_temperature;BMP_pressure;BME280_temperature;BME280_humidity;BME280_pressure;Samples;Min_cycle;Max_cycle;Signal;HPM_P1;HPM_P2
2023/12/07 00:00:28;;;;;;;98.87;30.57;;;;;;;1.70;76.27;100161.28;5069803;28;20023;-79
2023/12/07 00:02:53;;;;;;;92.47;32.57;;;;;;;1.70;76.88;100159.53;5069486;28;20225;-80
2023/12/07 00:05:19;;;;;;;79.45;30.98;;;;;;;1.74;77.03;100152.72;5068353;28;20017;-80
2023/12/07 00:07:44;;;;;;;68.73;25.93;;;;;;;1.76;76.76;100151.06;5070031;28;20059;-80
2023/12/07 00:10:10;;;;;;;57.87;22.87;;;;;;;1.78;76.68;100154.59;5068027;28;20017;-80
2023/12/07 00:12:35;;;;;;;72.00;20.27;;;;;;;1.82;77.16;100164.22;5069283;28;20041;-79
2023/12/07 00:15:00;;;;;;;45.43;17.90;;;;;;;1.87;76.44;100153.97;5069322;28;20259;-80
2023/12/07 00:17:26;;;;;;;50.30;17.77;;;;;;;1.85;76.76;100166.03;5069501;28;20130;-80
2023/12/07 00:19:53;;;;;;;53.70;18.27;;;;;;;1.84;77.01;100175.53;5069646;28;20065;-78
2023/12/07 00:22:19;;;;;;;53.33;16.38;;;;;;;1.83;76.95;100167.72;5068202;28;20047;-81
2023/12/07 00:24:45;;;;;;;107.30;21.75;;;;;;;1.81;76.63;100169.34;5068996;28;20474;-83
2023/12/07 00:27:13;;;;;;;51.33;16.87;;;;;;;1.77;76.31;100162.31;5069696;28;20040;-80
2023/12/07 00:29:38;;;;;;;62.03;16.55;;;;;;;1.75;77.35;100163.97;5069110;28;20035;-80
2023/12/07 00:32:04;;;;;;;66.43;18.30;;;;;;;1.74;76.90;100154.44;5067924;28;20028;-80
2023/12/07 00:34:30;;;;;;;57.38;13.88;;;;;;;1.66;77.13;100159.38;5069160;28;20047;-79
2023/12/07 00:36:55;;;;;;;51.07;14.07;;;;;;;1.62;77.35;100163.63;5069389;28;20048;-79
2023/12/07 00:39:21;;;;;;;31.77;12.60;;;;;;;1.57;76.89;100153.09;5069065;28;20078;-79
2023/12/07 00:41:47;;;;;;;49.83;15.05;;;;;;;1.52;77.34;100159.88;5069726;28;20036;-79
2023/12/07 00:44:14;;;;;;;27.67;10.03;;;;;;;1.49;77.92;100162.38;5067656;28;20032;-79
2023/12/07 00:46:39;;;;;;;37.65;11.32;;;;;;;1.50;77.41;100171.03;5068920;28;20025;-79
2023/12/07 00:49:05;;;;;;;23.08;10.20;;;;;;;1.49;77.36;100177.94;5069065;28;20400;-81
2023/12/07 00:51:30;;;;;;;35.37;12.00;;;;;;;1.49;77.75;100188.31;5069073;28;20074;-80
2023/12/07 00:53:55;;;;;;;23.87;9.70;;;;;;;1.50;77.38;100184.00;5069093;28;20100;-80
2023/12/07 00:56:21;;;;;;;22.27;10.17;;;;;;;1.53;77.88;100184.09;5069038;28;20052;-81
2023/12/07 00:58:46;;;;;;;28.70;9.73;;;;;;;1.56;77.61;100189.38;5071755;28;20034;-81
2023/12/07 01:01:12;;;;;;;37.15;11.48;;;;;;;1.55;77.24;100196.28;5072928;28;20017;-80
2023/12/07 01:03:40;;;;;;;51.77;12.90;;;;;;;1.50;77.21;100194.38;5073270;28;20025;-82
2023/12/07 01:06:06;;;;;;;62.42;15.90;;;;;;;1.47;77.74;100183.91;5072806;28;20423;-79
2023/12/07 01:08:31;;;;;;;54.65;14.73;;;;;;;1.46;77.38;100183.03;5072680;28;20033;-79
2023/12/07 01:10:57;;;;;;;27.67;10.43;;;;;;;1.50;77.49;100181.41;5072299;28;20112;-79
2023/12/07 01:13:25;;;;;;;28.67;10.18;;;;;;;1.53;77.20;100181.50;5072509;28;20048;-80
2023/12/07 01:15:51;;;;;;;32.93;9.43;;;;;;;1.54;77.59;100186.75;5072614;28;20066;-80
2023/12/07 01:18:16;;;;;;;34.90;9.50;;;;;;;1.53;77.68;100189.28;5072592;28;20503;-79
2023/12/07 01:20:42;;;;;;;34.67;9.43;;;;;;;1.52;77.88;100187.50;5072645;28;20104;-79
2023/12/07 01:23:08;;;;;;;28.30;9.13;;;;;;;1.52;77.71;100183.22;5072901;28;20126;-80
2023/12/07 01:25:34;;;;;;;36.08;9.85;;;;;;;1.53;77.97;100184.09;5071878;28;20050;-78
2023/12/07 01:27:59;;;;;;;26.95;9.38;;;;;;;1.53;77.60;100184.09;5072410;28;20115;-77
2023/12/07 01:30:25;;;;;;;37.23;9.40;;;;;;;1.53;77.69;100187.56;5072182;28;20021;-80
2023/12/07 01:32:50;;;;;;;31.97;8.67;;;;;;;1.53;77.51;100191.88;5072192;28;20517;-79
2023/12/07 01:35:16;;;;;;;33.03;9.13;;;;;;;1.54;77.71;100197.13;5072024;28;20229;-78
2023/12/07 01:37:41;;;;;;;24.92;8.88;;;;;;;1.54;77.21;100189.34;5072362;28;20032;-76
2023/12/07 01:40:10;;;;;;;20.67;8.30;;;;;;;1.48;77.19;100177.88;5072254;28;20037;-77
2023/12/07 01:42:38;;;;;;;24.40;8.25;;;;;;;1.37;77.40;100181.03;5070988;28;20329;-80
2023/12/07 01:45:05;;;;;;;29.27;7.30;;;;;;;1.33;78.38;100178.28;5072293;28;20035;-80
2023/12/07 01:47:31;;;;;;;17.33;8.43;;;;;;;1.33;77.78;100171.38;5072026;28;20100;-79
2023/12/07 01:49:58;;;;;;;27.43;9.07;;;;;;;1.33;77.70;100166.19;5072084;28;20032;-79
2023/12/07 01:52:28;;;;;;;32.55;8.90;;;;;;;1.31;78.25;100167.84;5072070;28;20155;-79
2023/12/07 01:54:54;;;;;;;30.23;9.18;;;;;;;1.29;77.95;100179.88;5070477;28;20039;-80
2023/12/07 01:57:20;;;;;;;27.53;9.20;;;;;;;1.24;78.18;100171.06;5072012;28;20754;-79
2023/12/07 01:59:45;;;;;;;24.35;8.90;;;;;;;1.20;77.97;100174.41;5071880;28;20028;-80
2023/12/07 02:02:11;;;;;;;39.67;10.07;;;;;;;1.16;78.45;100188.13;5071955;28;20040;-79
2023/12/07 02:04:37;;;;;;;30.52;10.25;;;;;;;1.18;77.88;100187.31;5071879;28;20032;-79
2023/12/07 02:07:04;;;;;;;51.07;12.80;;;;;;;1.21;78.02;100181.34;5071787;28;20029;-79
2023/12/07 02:09:29;;;;;;;52.80;11.80;;;;;;;1.19;78.50;100180.44;5071147;28;20041;-79
2023/12/07 02:11:55;;;;;;;42.70;11.93;;;;;;;1.13;78.32;100169.03;5070223;28;20488;-82
2023/12/07 02:14:21;;;;;;;70.37;15.07;;;;;;;1.07;78.70;100162.75;5071454;28;20490;-79
2023/12/07 02:16:53;;;;;;;58.80;14.18;;;;;;;1.01;78.90;100176.38;5071673;28;20032;-80
2023/12/07 02:19:43;;;;;;;75.43;13.95;;;;;;;0.96;78.61;100176.22;5071546;28;20068;-80
2023/12/07 02:22:14;;;;;;;59.65;12.63;;;;;;;0.85;79.76;100175.88;5071627;28;20113;-79
2023/12/07 02:24:46;;;;;;;83.60;15.30;;;;;;;0.80;78.95;100185.19;5070861;28;20041;-79
2023/12/07 02:27:12;;;;;;;43.57;11.37;;;;;;;0.74;79.12;100185.00;5071393;28;20040;-79
2023/12/07 02:29:37;;;;;;;47.53;11.25;;;;;;;0.70;79.78;100180.53;5071192;28;20021;-79
2023/12/07 02:32:04;;;;;;;40.83;11.47;;;;;;;0.71;78.97;100184.91;5070914;28;20523;-79
2023/12/07 02:34:29;;;;;;;42.28;12.38;;;;;;;0.70;79.03;100175.34;5071062;28;20031;-79
2023/12/07 02:36:58;;;;;;;29.07;9.10;;;;;;;0.70;79.66;100175.34;5071092;28;20024;-80
2023/12/07 02:39:25;;;;;;;36.25;10.35;;;;;;;0.63;79.66;100170.81;5071198;28;20035;-79
2023/12/07 02:41:51;;;;;;;27.48;10.63;;;;;;;0.59;79.26;100172.41;5071197;28;20393;-79
2023/12/07 02:44:17;;;;;;;27.30;10.02;;;;;;;0.60;79.37;100170.66;5069476;28;20564;-80
2023/12/07 02:46:42;;;;;;;33.50;10.07;;;;;;;0.63;79.63;100168.22;5069563;28;20128;-80
2023/12/07 02:49:08;;;;;;;22.40;8.10;;;;;;;0.61;79.48;100154.31;5069346;28;20024;-81
2023/12/07 02:51:33;;;;;;;26.43;9.50;;;;;;;0.63;78.88;100145.75;5071023;28;20028;-80
2023/12/07 02:53:59;;;;;;;20.88;8.23;;;;;;;0.63;78.67;100137.13;5070758;28;20037;-80
2023/12/07 02:56:24;;;;;;;17.97;7.93;;;;;;;0.65;79.49;100135.44;5070887;28;20511;-81
2023/12/07 02:58:49;;;;;;;24.87;8.77;;;;;;;0.69;79.43;100129.53;5070621;28;20451;-79
2023/12/07 03:01:15;;;;;;;35.73;11.97;;;;;;;0.73;79.00;100127.94;5069345;28;20028;-79
2023/12/07 03:03:41;;;;;;;23.93;9.43;;;;;;;0.77;78.51;100128.06;5069144;28;20051;-80
2023/12/07 03:06:07;;;;;;;27.67;9.77;;;;;;;0.77;78.73;100125.47;5069334;28;20031;-79
2023/12/07 03:08:32;;;;;;;27.07;10.77;;;;;;;0.73;78.64;100126.22;5068811;28;20032;-80
2023/12/07 03:10:58;;;;;;;28.97;10.47;;;;;;;0.71;78.48;100123.56;5069100;28;20279;-79
2023/12/07 03:13:23;;;;;;;41.30;13.37;;;;;;;0.68;78.86;100123.47;5068731;28;20029;-80
2023/12/07 03:15:48;;;;;;;30.13;11.30;;;;;;;0.66;78.80;100124.25;5068795;28;20033;-80
2023/12/07 03:18:14;;;;;;;22.23;9.87;;;;;;;0.64;78.69;100128.50;5069067;28;20036;-80
2023/12/07 03:20:40;;;;;;;28.90;10.50;;;;;;;0.67;78.97;100128.59;5068204;28;20120;-80
2023/12/07 03:23:05;;;;;;;19.87;9.57;;;;;;;0.66;78.65;100129.44;5068943;28;20120;-78
2023/12/07 03:25:30;;;;;;;110.47;22.83;;;;;;;0.64;78.94;100123.31;5068454;28;20040;-79
2023/12/07 03:27:56;;;;;;;52.30;16.43;;;;;;;0.64;78.82;100131.09;5068286;28;20027;-81
2023/12/07 03:30:21;;;;;;;61.23;17.03;;;;;;;0.65;78.64;100122.50;5068292;28;20693;-80
2023/12/07 03:32:47;;;;;;;61.10;17.83;;;;;;;0.67;78.40;100126.00;5068625;28;20024;-78
2023/12/07 03:35:12;;;;;;;104.67;23.30;;;;;;;0.66;78.94;100127.72;5068252;28;20078;-79
2023/12/07 03:37:38;;;;;;;60.13;17.23;;;;;;;0.66;79.06;100124.25;5068542;28;20036;-80
2023/12/07 03:40:05;;;;;;;77.13;21.43;;;;;;;0.67;78.58;100120.84;5068695;28;20028;-80
2023/12/07 03:42:31;;;;;;;185.32;38.53;;;;;;;0.64;79.06;100112.97;5068846;28;20028;-79
2023/12/07 03:44:56;;;;;;;115.80;27.80;;;;;;;0.62;79.24;100106.84;5068276;28;20190;-80
2023/12/07 03:47:23;;;;;;;61.73;18.70;;;;;;;0.62;79.31;100101.66;5068398;28;20116;-81
2023/12/07 03:49:48;;;;;;;70.30;20.00;;;;;;;0.63;78.57;100109.47;5068630;28;20019;-80
2023/12/07 03:52:14;;;;;;;36.10;14.60;;;;;;;0.66;78.75;100099.19;5068315;28;20033;-77
2023/12/07 03:54:39;;;;;;;32.50;14.67;;;;;;;0.70;79.05;100100.19;5068428;28;20028;-81
2023/12/07 03:57:04;;;;;;;36.70;15.50;;;;;;;0.73;78.61;100108.06;5068408;28;20044;-82
2023/12/07 03:59:30;;;;;;;40.97;15.07;;;;;;;0.72;78.69;100114.09;5067775;28;20020;-80
2023/12/07 04:01:55;;;;;;;96.40;21.93;;;;;;;0.74;78.80;100115.00;5068301;28;20036;-80
2023/12/07 04:04:20;;;;;;;67.57;19.93;;;;;;;0.76;78.35;100122.84;5068276;28;20020;-79
2023/12/07 04:06:46;;;;;;;51.70;16.33;;;;;;;0.74;78.73;100112.41;5068206;28;20092;-80
2023/12/07 04:09:11;;;;;;;39.67;15.07;;;;;;;0.75;78.73;100114.19;5068534;28;20032;-81
2023/12/07 04:11:37;;;;;;;34.47;13.90;;;;;;;0.77;78.53;100109.94;5068032;28;20420;-79
2023/12/07 04:14:02;;;;;;;26.97;13.00;;;;;;;0.78;78.23;100098.72;5067684;28;20051;-80
2023/12/07 04:16:27;;;;;;;31.83;13.57;;;;;;;0.80;78.43;100091.88;5068164;28;20025;-80
2023/12/07 04:18:53;;;;;;;26.87;12.30;;;;;;;0.80;78.43;100091.88;5068062;28;20043;-81
2023/12/07 04:21:22;;;;;;;28.17;12.52;;;;;;;0.80;78.35;100091.88;5068407;28;20109;-80
2023/12/07 04:23:47;;;;;;;28.80;12.52;;;;;;;0.80;78.07;100099.66;5067558;28;20059;-80
2023/12/07 04:26:13;;;;;;;29.63;11.83;;;;;;;0.81;77.87;100103.16;5069147;28;20382;-80
2023/12/07 04:28:38;;;;;;;25.63;12.43;;;;;;;0.78;77.94;100116.88;5067910;28;20025;-80
2023/12/07 04:31:05;;;;;;;31.03;13.00;;;;;;;0.76;78.29;100128.03;5067975;28;20082;-81
2023/12/07 04:33:30;;;;;;;30.08;13.50;;;;;;;0.70;78.20;100126.13;5071818;28;20029;-80
2023/12/07 04:35:55;;;;;;;32.80;14.50;;;;;;;0.64;78.05;100120.72;5072169;28;20051;-80
2023/12/07 04:38:21;;;;;;;30.35;14.00;;;;;;;0.60;78.88;100116.25;5072062;28;20024;-80
2023/12/07 04:40:46;;;;;;;25.50;12.23;;;;;;;0.59;78.89;100102.44;5072392;28;20029;-80
2023/12/07 04:43:12;;;;;;;23.33;11.83;;;;;;;0.61;78.43;100094.72;5071834;28;20032;-79
2023/12/07 04:45:38;;;;;;;26.80;12.43;;;;;;;0.65;78.37;100096.56;5073066;28;20526;-80
2023/12/07 04:48:04;;;;;;;23.02;11.52;;;;;;;0.68;78.37;100091.50;5055643;28;20519;-80
2023/12/07 04:50:29;;;;;;;26.08;12.07;;;;;;;0.71;78.58;100092.44;5071504;28;20021;-79
2023/12/07 04:52:55;;;;;;;26.43;11.87;;;;;;;0.73;78.12;100097.69;5071776;28;20116;-79
2023/12/07 04:55:20;;;;;;;23.53;11.90;;;;;;;0.73;77.94;100084.75;5071769;28;20538;-80
2023/12/07 04:57:46;;;;;;;27.47;12.23;;;;;;;0.74;78.38;100081.31;5071740;28;20021;-80
2023/12/07 05:00:13;;;;;;;22.75;11.38;;;;;;;0.73;77.79;100089.94;5071653;28;20393;-81
2023/12/07 05:02:38;;;;;;;31.05;12.80;;;;;;;0.69;78.38;100078.56;5072178;28;20021;-79
2023/12/07 05:05:05;;;;;;;29.53;12.60;;;;;;;0.61;78.17;100069.66;5074549;28;20077;-80
2023/12/07 05:07:30;;;;;;;26.60;13.23;;;;;;;0.59;78.52;100067.84;5072843;28;20024;-80
2023/12/07 05:09:55;;;;;;;27.27;12.27;;;;;;;0.59;78.43;100071.34;5071189;28;20404;-80
2023/12/07 05:12:21;;;;;;;23.83;11.80;;;;;;;0.61;78.03;100076.56;5071331;28;20028;-80
2023/12/07 05:14:47;;;;;;;21.77;11.20;;;;;;;0.63;78.20;100069.72;5071080;28;20174;-81
2023/12/07 05:17:12;;;;;;;25.73;10.80;;;;;;;0.66;78.53;100062.06;5071361;28;20485;-82
2023/12/07 05:19:38;;;;;;;26.00;11.50;;;;;;;0.70;78.24;100053.53;5071418;28;20035;-81
2023/12/07 05:22:03;;;;;;;22.47;11.27;;;;;;;0.69;78.31;100055.25;5070825;28;20114;-82
2023/12/07 05:24:30;;;;;;;25.23;11.63;;;;;;;0.70;78.06;100053.53;5067369;28;20404;-81
2023/12/07 05:26:55;;;;;;;22.63;11.48;;;;;;;0.71;77.94;100039.75;5068804;28;20025;-81
2023/12/07 05:29:21;;;;;;;27.63;11.65;;;;;;;0.67;77.93;100037.91;5072176;28;20112;-80
2023/12/07 05:31:50;;;;;;;27.80;12.30;;;;;;;0.59;77.83;100028.97;5070845;28;20528;-81
2023/12/07 05:34:16;;;;;;;23.65;10.98;;;;;;;0.56;78.31;100025.47;5070821;28;20033;-80
2023/12/07 05:36:41;;;;;;;20.87;11.53;;;;;;;0.56;77.95;100020.28;5070865;28;20028;-79
2023/12/07 05:39:07;;;;;;;24.20;11.63;;;;;;;0.56;78.42;100015.09;5070988;28;20028;-80
2023/12/07 05:41:32;;;;;;;20.33;10.55;;;;;;;0.56;78.14;100009.03;5070900;28;20078;-80
2023/12/07 05:43:58;;;;;;;23.57;10.83;;;;;;;0.57;78.27;100010.81;5069576;28;20475;-80
2023/12/07 05:46:23;;;;;;;25.43;11.23;;;;;;;0.56;78.31;100019.41;5070980;28;20267;-80
2023/12/07 05:48:48;;;;;;;20.73;10.43;;;;;;;0.56;78.41;100020.28;5070393;28;20503;-80
2023/12/07 05:51:16;;;;;;;21.67;10.80;;;;;;;0.55;78.23;100023.69;5070621;28;20078;-82
2023/12/07 05:53:42;;;;;;;21.23;10.63;;;;;;;0.53;78.50;100019.31;5071731;28;20056;-82
2023/12/07 05:56:08;;;;;;;25.55;12.02;;;;;;;0.54;78.21;100021.94;5071120;28;20029;-83
2023/12/07 05:58:33;;;;;;;20.73;10.47;;;;;;;0.52;78.63;100023.59;5058640;28;20024;-82
2023/12/07 06:01:00;;;;;;;24.77;10.75;;;;;;;0.51;78.64;100029.63;5057550;28;20532;-82
2023/12/07 06:03:25;;;;;;;24.47;10.70;;;;;;;0.49;78.48;100026.09;5065378;28;20241;-81
2023/12/07 06:05:51;;;;;;;26.75;11.38;;;;;;;0.48;78.59;100021.75;5078610;28;20028;-80
2023/12/07 06:08:19;;;;;;;23.03;11.13;;;;;;;0.50;78.87;100027.00;5083239;28;20044;-80
2023/12/07 06:10:46;;;;;;;26.60;12.30;;;;;;;0.48;78.14;100029.53;5051517;28;20021;-80
2023/12/07 06:13:13;;;;;;;26.63;11.63;;;;;;;0.48;77.96;100037.28;5044974;28;20068;-80
2023/12/07 06:15:39;;;;;;;23.40;10.77;;;;;;;0.47;78.16;100030.34;5050997;28;20061;-80
2023/12/07 06:18:04;;;;;;;24.45;11.00;;;;;;;0.48;78.76;100021.75;5050669;28;20492;-80
2023/12/07 06:20:29;;;;;;;26.50;11.43;;;;;;;0.52;78.84;100038.28;5048845;28;20021;-79
2023/12/07 06:22:55;;;;;;;24.43;11.80;;;;;;;0.54;78.16;100027.13;5033871;28;20024;-81
2023/12/07 06:25:21;;;;;;;27.80;12.23;;;;;;;0.54;78.64;100013.31;5048490;28;20052;-81
2023/12/07 06:27:46;;;;;;;23.10;11.52;;;;;;;0.54;78.49;100016.75;5040848;28;20099;-82
2023/12/07 06:30:12;;;;;;;22.60;11.37;;;;;;;0.54;78.30;100015.91;5050404;28;20056;-80
2023/12/07 06:32:38;;;;;;;26.10;11.57;;;;;;;0.55;78.48;100023.69;5044769;28;20018;-80
2023/12/07 06:35:07;;;;;;;27.33;12.40;;;;;;;0.57;78.17;100026.34;5049747;28;20039;-80
2023/12/07 06:37:32;;;;;;;24.60;11.60;;;;;;;0.57;78.66;100022.03;5048005;28;20017;-80
2023/12/07 06:39:59;;;;;;;27.37;12.60;;;;;;;0.57;78.12;100016.84;5049169;28;20031;-80
2023/12/07 06:42:25;;;;;;;24.83;10.43;;;;;;;0.59;78.63;100009.16;5050562;28;20018;-80
2023/12/07 06:44:51;;;;;;;24.63;11.32;;;;;;;0.60;78.21;99999.63;5045768;28;20052;-80
2023/12/07 06:47:18;;;;;;;29.17;11.13;;;;;;;0.60;78.29;100005.72;5048401;28;20374;-81
2023/12/07 06:49:44;;;;;;;17.67;7.63;;;;;;;0.59;78.37;99997.88;5049610;28;20531;-80
2023/12/07 06:52:10;;;;;;;17.95;6.82;;;;;;;0.60;78.18;99995.34;5048998;28;20055;-80
2023/12/07 06:54:36;;;;;;;20.25;7.70;;;;;;;0.61;78.90;100001.44;5049222;28;20634;-81
2023/12/07 06:57:01;;;;;;;18.63;7.93;;;;;;;0.62;78.75;100005.78;5048273;28;20056;-80
2023/12/07 06:59:27;;;;;;;16.10;6.67;;;;;;;0.62;78.77;100009.22;5050034;28;20021;-82
2023/12/07 07:01:52;;;;;;;14.97;6.30;;;;;;;0.63;77.95;99999.78;5048754;28;20028;-79
2023/12/07 07:04:18;;;;;;;19.07;5.90;;;;;;;0.62;78.15;100006.66;5051409;28;20517;-80
2023/12/07 07:06:44;;;;;;;14.70;6.00;;;;;;;0.61;79.07;100014.38;5044935;28;20056;-77
2023/12/07 07:09:09;;;;;;;13.55;4.95;;;;;;;0.60;78.95;100015.19;5049875;28;20025;-78
2023/12/07 07:11:35;;;;;;;14.47;5.10;;;;;;;0.60;78.63;100010.91;5048463;28;20033;-82
2023/12/07 07:14:01;;;;;;;11.90;4.80;;;;;;;0.61;79.29;100004.03;5046223;28;20044;-81
2023/12/07 07:16:26;;;;;;;15.98;5.05;;;;;;;0.61;78.99;99994.53;5047724;28;20025;-80
2023/12/07 07:18:52;;;;;;;22.63;7.30;;;;;;;0.63;79.18;99995.44;5049105;28;20032;-81
2023/12/07 07:21:19;;;;;;;14.90;6.50;;;;;;;0.65;79.23;99998.09;5047960;28;20033;-81
2023/12/07 07:23:44;;;;;;;14.15;5.65;;;;;;;0.66;78.99;100005.03;5047881;28;20021;-79
2023/12/07 07:26:10;;;;;;;13.10;4.00;;;;;;;0.67;79.10;100006.81;5047539;28;20037;-82
2023/12/07 07:28:36;;;;;;;12.07;4.53;;;;;;;0.69;79.07;100005.13;5044362;28;20028;-83
2023/12/07 07:31:02;;;;;;;19.67;6.57;;;;;;;0.72;79.13;100010.41;5045021;28;20025;-80
2023/12/07 07:33:28;;;;;;;13.68;4.57;;;;;;;0.74;79.24;99998.38;5047952;28;20429;-81
2023/12/07 07:35:53;;;;;;;13.23;5.00;;;;;;;0.77;78.88;99995.88;5045499;28;20030;-80
2023/12/07 07:38:18;;;;;;;13.07;5.30;;;;;;;0.80;79.44;99982.16;5047826;28;20123;-81
2023/12/07 07:40:45;;;;;;;14.33;4.93;;;;;;;0.82;79.31;99970.97;5047258;28;20032;-82
2023/12/07 07:43:10;;;;;;;10.43;3.95;;;;;;;0.84;79.37;99963.25;5047516;28;20407;-81
2023/12/07 07:45:36;;;;;;;12.10;3.60;;;;;;;0.88;79.28;99959.91;5048895;28;20029;-81
2023/12/07 07:48:01;;;;;;;10.57;3.53;;;;;;;0.91;79.28;99961.75;5049175;28;20629;-80
2023/12/07 07:50:28;;;;;;;13.68;4.13;;;;;;;0.97;78.84;99965.41;5048526;28;20066;-80
2023/12/07 07:52:54;;;;;;;11.30;3.67;;;;;;;1.02;79.23;99978.47;5049586;28;20025;-80
2023/12/07 07:55:20;;;;;;;11.38;3.78;;;;;;;1.07;79.20;99973.44;5049943;28;20064;-79
2023/12/07 07:57:45;;;;;;;12.37;4.47;;;;;;;1.11;78.99;99983.97;5049680;28;20074;-80
2023/12/07 08:00:12;;;;;;;10.02;4.20;;;;;;;1.14;78.80;99999.63;5049503;28;20111;-80
2023/12/07 08:02:38;;;;;;;17.50;6.10;;;;;;;1.19;79.29;99988.50;5049646;28;20021;-79
2023/12/07 08:05:04;;;;;;;20.35;6.07;;;;;;;1.22;78.17;99988.56;5048975;28;20202;-79
2023/12/07 08:07:29;;;;;;;18.23;6.13;;;;;;;1.26;78.31;99982.63;5047394;28;20028;-79
2023/12/07 08:09:55;;;;;;;13.02;4.55;;;;;;;1.29;79.30;99982.72;5048376;28;20429;-79
2023/12/07 08:12:22;;;;;;;16.60;7.77;;;;;;;1.33;79.28;99978.50;5049262;28;20060;-79
2023/12/07 08:14:48;;;;;;;18.02;7.68;;;;;;;1.35;80.18;99969.94;5048740;28;20044;-79
2023/12/07 08:17:14;;;;;;;14.23;8.50;;;;;;;1.41;79.42;99959.75;5044505;28;20029;-79
2023/12/07 08:19:41;;;;;;;16.63;9.68;;;;;;;1.46;79.53;99953.78;5029396;28;20507;-79
2023/12/07 08:22:07;;;;;;;16.03;10.30;;;;;;;1.52;78.89;99949.66;5029045;28;20029;-79
2023/12/07 08:24:33;;;;;;;17.42;11.02;;;;;;;1.59;78.85;99950.72;5036196;28;20043;-80
2023/12/07 08:27:05;;;;;;;19.40;12.23;;;;;;;1.67;78.65;99940.50;5047819;28;20128;-79
2023/12/07 08:29:30;;;;;;;20.80;10.27;;;;;;;1.72;78.40;99945.00;5049336;28;20021;-79
2023/12/07 08:31:55;;;;;;;13.80;7.72;;;;;;;1.78;78.38;99951.19;5047978;28;20032;-80
2023/12/07 08:34:21;;;;;;;16.77;6.33;;;;;;;1.84;78.42;99949.63;5049369;28;20053;-80
2023/12/07 08:36:46;;;;;;;20.40;6.00;;;;;;;1.90;78.35;99943.72;5049313;28;20108;-80
2023/12/07 08:39:12;;;;;;;16.47;5.30;;;;;;;1.95;78.69;99942.13;5049510;28;20026;-80
2023/12/07 08:41:37;;;;;;;13.27;5.10;;;;;;;2.01;78.29;99941.41;5048155;28;20158;-80
2023/12/07 08:44:03;;;;;;;17.55;4.43;;;;;;;2.07;78.41;99935.50;5049047;28;20094;-80
2023/12/07 08:46:29;;;;;;;10.57;4.60;;;;;;;2.13;78.22;99935.66;5049044;28;20040;-81
2023/12/07 08:48:55;;;;;;;12.25;3.75;;;;;;;2.22;78.67;99932.41;5049045;28;20409;-81
2023/12/07 08:51:21;;;;;;;11.00;4.82;;;;;;;2.34;78.41;99937.03;5047637;28;20021;-80
2023/12/07 08:53:47;;;;;;;12.73;4.50;;;;;;;2.42;78.60;99927.66;5049327;28;20036;-80
2023/12/07 08:56:12;;;;;;;12.80;4.33;;;;;;;2.54;77.97;99935.78;5049262;28;20017;-81
2023/12/07 08:58:38;;;;;;;18.45;6.82;;;;;;;2.65;78.21;99923.03;5048878;28;20017;-80
2023/12/07 09:01:05;;;;;;;22.90;7.75;;;;;;;2.73;77.93;99917.97;5049080;28;20036;-82
2023/12/07 09:03:31;;;;;;;14.32;5.70;;;;;;;2.85;78.40;99902.66;5048936;28;20098;-79
2023/12/07 09:05:58;;;;;;;13.63;4.67;;;;;;;2.98;78.97;99909.00;5048775;28;20025;-81
2023/12/07 09:08:23;;;;;;;11.63;3.50;;;;;;;3.09;78.13;99898.81;5048892;28;20033;-81
2023/12/07 09:10:51;;;;;;;10.70;3.50;;;;;;;3.22;78.40;99896.44;5048896;28;20021;-81
2023/12/07 09:13:17;;;;;;;10.57;3.20;;;;;;;3.35;77.83;99895.84;5044212;28;20026;-82
2023/12/07 09:15:42;;;;;;;13.38;4.43;;;;;;;3.49;78.04;99892.59;5027946;28;20032;-79
2023/12/07 09:18:08;;;;;;;10.73;3.70;;;;;;;3.62;77.67;99888.50;5028065;28;20022;-81
2023/12/07 09:20:33;;;;;;;10.77;3.70;;;;;;;3.73;77.79;99886.97;5032923;28;20170;-81
2023/12/07 09:22:58;;;;;;;8.70;3.77;;;;;;;3.84;77.89;99879.34;5031414;28;20029;-81
2023/12/07 09:25:27;;;;;;;11.90;3.83;;;;;;;3.95;77.78;99883.00;5047733;28;20053;-80
2023/12/07 09:27:53;;;;;;;12.20;3.78;;;;;;;4.07;77.09;99879.72;5052529;28;20099;-79
2023/12/07 09:30:18;;;;;;;9.13;3.93;;;;;;;4.21;77.73;99869.50;5052455;28;20480;-81
2023/12/07 09:32:44;;;;;;;10.70;4.32;;;;;;;4.31;77.24;99854.91;5052294;28;20052;-81
2023/12/07 09:35:18;;;;;;;11.63;4.60;;;;;;;4.42;77.26;99852.44;5047931;28;20065;-80
2023/12/07 09:37:45;;;;;;;14.27;4.28;;;;;;;4.55;77.26;99862.22;5032423;28;20022;-80
2023/12/07 09:40:19;;;;;;;11.63;3.83;;;;;;;4.66;77.62;99861.47;5031159;28;20473;-80
2023/12/07 09:42:45;;;;;;;14.05;4.28;;;;;;;4.77;77.02;99848.56;5035730;28;20024;-81
2023/12/07 09:45:11;;;;;;;13.25;3.97;;;;;;;4.87;77.57;99856.53;5051663;28;20047;-80
2023/12/07 09:47:38;;;;;;;13.73;3.63;;;;;;;5.00;78.15;99847.13;5050591;28;20071;-81
2023/12/07 09:50:05;;;;;;;12.20;3.00;;;;;;;5.16;78.13;99848.16;5052135;28;20048;-81
2023/12/07 09:52:31;;;;;;;28.83;5.28;;;;;;;5.42;78.57;99850.19;5050668;28;20037;-81
2023/12/07 09:54:57;;;;;;;11.70;2.83;;;;;;;5.55;78.39;99839.88;5050755;28;20055;-80
2023/12/07 09:57:22;;;;;;;13.13;2.90;;;;;;;5.69;78.69;99837.38;5050646;28;20052;-81
2023/12/07 09:59:48;;;;;;;16.40;3.70;;;;;;;5.89;78.35;99827.97;5050291;28;20314;-81
2023/12/07 10:02:14;;;;;;;18.52;3.67;;;;;;;6.00;78.69;99829.78;5050143;28;20032;-81
2023/12/07 10:04:39;;;;;;;25.20;4.90;;;;;;;6.21;77.98;99821.28;5050428;28;20064;-78
2023/12/07 10:07:08;;;;;;;13.27;3.83;;;;;;;6.30;77.94;99823.94;5050390;28;20035;-81
2023/12/07 10:09:37;;;;;;;11.40;3.42;;;;;;;6.39;77.82;99819.63;5046936;28;20216;-80
2023/12/07 10:12:04;;;;;;;12.52;3.15;;;;;;;6.51;78.21;99808.34;5030354;28;20021;-78
2023/12/07 10:14:30;;;;;;;8.80;2.40;;;;;;;6.64;78.27;99804.06;5030171;28;20188;-78
2023/12/07 10:16:56;;;;;;;9.23;2.30;;;;;;;6.81;77.92;99797.16;5030159;28;20296;-80
2023/12/07 10:19:21;;;;;;;7.83;2.30;;;;;;;7.01;77.48;99793.72;5030507;28;20036;-78
2023/12/07 10:21:51;;;;;;;7.60;2.00;;;;;;;7.11;76.92;99789.41;5030038;28;20030;-78
2023/12/07 10:24:19;;;;;;;7.95;1.48;;;;;;;7.36;76.57;99794.69;5035970;28;20034;-79
2023/12/07 10:26:45;;;;;;;6.28;1.63;;;;;;;7.47;76.22;99799.06;5066547;28;20029;-79
2023/12/07 10:29:11;;;;;;;7.33;2.37;;;;;;;7.62;75.98;99799.97;5049155;28;20032;-79
2023/12/07 10:31:37;;;;;;;5.85;2.10;;;;;;;7.78;75.66;99781.59;5049810;28;20116;-79
2023/12/07 10:34:04;;;;;;;7.95;1.98;;;;;;;7.94;75.10;99772.84;5049790;28;20131;-79
2023/12/07 10:36:30;;;;;;;6.73;1.57;;;;;;;7.97;74.58;99764.97;5049918;28;20032;-79
2023/12/07 10:38:56;;;;;;;6.05;1.48;;;;;;;8.01;74.54;99758.00;5049948;28;20033;-79
2023/12/07 10:41:25;;;;;;;5.30;1.63;;;;;;;8.01;74.86;99747.50;5049861;28;20025;-79
2023/12/07 10:43:59;;;;;;;3.30;1.00;;;;;;;8.12;73.77;99734.38;5049404;28;20114;-79
2023/12/07 10:46:26;;;;;;;6.88;1.60;;;;;;;8.24;73.39;99734.31;5049735;28;20050;-79
2023/12/07 10:48:59;;;;;;;7.87;1.33;;;;;;;8.36;73.39;99737.78;5050964;28;20540;-80
2023/12/07 10:51:59;;;;;;;5.03;1.20;;;;;;;8.43;73.34;99729.88;5049389;28;20033;-80
2023/12/07 10:54:33;;;;;;;4.45;1.00;;;;;;;8.68;72.66;99713.19;5049750;28;20371;-80
2023/12/07 10:57:02;;;;;;;4.65;1.20;;;;;;;8.87;71.21;99701.69;5049279;28;20021;-79
2023/12/07 10:59:29;;;;;;;5.25;1.05;;;;;;;8.87;71.67;99688.56;5045727;28;20489;-79
2023/12/07 11:01:57;;;;;;;4.03;1.20;;;;;;;8.86;70.43;99683.31;5046167;28;20030;-80
2023/12/07 11:04:23;;;;;;;7.70;1.50;;;;;;;8.95;70.49;99685.91;5045705;28;20030;-79
2023/12/07 11:06:53;;;;;;;6.32;1.60;;;;;;;8.92;70.06;99674.53;5042388;28;20630;-80
2023/12/07 11:09:32;;;;;;;6.40;1.08;;;;;;;8.93;70.22;99671.91;5048998;28;20120;-79
2023/12/07 11:12:49;;;;;;;7.03;1.85;;;;;;;8.94;69.90;99672.75;5046987;28;20057;-79
2023/12/07 11:15:17;;;;;;;7.33;1.47;;;;;;;9.02;69.80;99671.84;5046693;28;20060;-79
2023/12/07 11:17:54;;;;;;;7.32;1.52;;;;;;;9.03;70.20;99664.81;5049000;28;20039;-80
2023/12/07 11:20:39;;;;;;;4.95;1.30;;;;;;;9.18;67.83;99667.31;5049188;28;20040;-80